createdAt,value
2022-09-03T00:02:08.067Z,100924.34
2022-09-03T00:07:17.854Z,100929.28
2022-09-03T00:12:52.133Z,100943.00
2022-09-03T00:18:07.879Z,100948.25
2022-09-03T00:23:09.512Z,100971.41
2022-09-03T00:28:14.577Z,100997.50
2022-09-03T00:33:26.205Z,100966.81
2022-09-03T00:38:24.981Z,100984.50
2022-09-03T00:43:29.165Z,101022.88
2022-09-03T00:48:31.096Z,101017.50
2022-09-03T00:53:57.896Z,100990.09
2022-09-03T00:59:08.447Z,101015.94
2022-09-03T01:04:27.903Z,101012.69
2022-09-03T01:09:50.064Z,101020.28
2022-09-03T01:15:14.333Z,101019.38
2022-09-03T01:20:42.648Z,101027.19
2022-09-03T01:26:18.870Z,101031.97
2022-09-03T01:31:47.188Z,101014.00
2022-09-03T01:36:57.135Z,101019.69
2022-09-03T01:42:21.250Z,101041.72
2022-09-03T01:47:59.592Z,101050.78
2022-09-03T01:53:11.990Z,101022.97
2022-09-03T01:58:24.946Z,101004.59
2022-09-03T02:03:27.367Z,100974.78
2022-09-03T02:08:28.459Z,100980.19
2022-09-03T02:13:31.316Z,101006.78
2022-09-03T02:18:36.983Z,101008.63
2022-09-03T02:23:34.865Z,101014.16
2022-09-03T02:28:35.058Z,100994.31
2022-09-03T02:33:43.335Z,101026.31
2022-09-03T02:38:42.891Z,101007.19
2022-09-03T02:44:03.086Z,101005.19
2022-09-03T02:49:05.585Z,101019.78
2022-09-03T02:54:06.565Z,101009.72
2022-09-03T02:59:08.583Z,101041.72
2022-09-03T03:04:06.558Z,101030.38
2022-09-03T03:09:06.034Z,101010.53
2022-09-03T03:14:07.319Z,101016.47
2022-09-03T03:19:04.728Z,101040.31
2022-09-03T03:24:05.106Z,101037.88
2022-09-03T03:29:06.704Z,101049.91
2022-09-03T03:34:04.514Z,101019.88
2022-09-03T03:39:03.895Z,101034.03
2022-09-03T03:44:07.500Z,101004.00
2022-09-03T03:49:11.296Z,101036.69
2022-09-03T03:54:17.471Z,101044.69
2022-09-03T03:59:21.811Z,101048.75
2022-09-03T04:04:20.856Z,101025.50
2022-09-03T04:09:23.188Z,101068.44
2022-09-03T04:14:22.662Z,101049.44
2022-09-03T04:19:22.898Z,101047.88
2022-09-03T04:24:24.231Z,101053.94
2022-09-03T04:29:27.025Z,101053.78
2022-09-03T04:34:25.692Z,101081.34
2022-09-03T04:39:34.162Z,101083.50
2022-09-03T04:44:33.184Z,101070.13
2022-09-03T04:49:31.645Z,101059.22
2022-09-03T04:54:29.920Z,101102.53
2022-09-03T04:59:29.655Z,101066.94
2022-09-03T05:04:33.159Z,101074.16
2022-09-03T05:09:37.410Z,101079.97
2022-09-03T05:15:00.061Z,101098.53
2022-09-03T05:19:58.878Z,101097.75
2022-09-03T05:25:00.803Z,101101.69
2022-09-03T05:30:01.064Z,101093.88
2022-09-03T05:34:59.158Z,101112.06
2022-09-03T05:39:57.909Z,101111.22
2022-09-03T05:44:59.699Z,101117.94
2022-09-03T05:50:00.089Z,101099.69
2022-09-03T05:55:02.827Z,101123.34
2022-09-03T06:00:04.183Z,101145.47
2022-09-03T06:05:11.215Z,101128.78
2022-09-03T06:10:12.782Z,101129.31
2022-09-03T06:15:13.405Z,101140.72
2022-09-03T06:20:13.988Z,101127.38
2022-09-03T06:25:16.091Z,101140.47
2022-09-03T06:30:20.495Z,101135.22
2022-09-03T06:35:29.572Z,101139.63
2022-09-03T06:40:33.782Z,101151.00
2022-09-03T06:45:36.444Z,101156.59
2022-09-03T06:50:35.228Z,101153.31
2022-09-03T06:55:34.866Z,101171.72
2022-09-03T07:00:32.717Z,101172.13
2022-09-03T07:05:34.096Z,101173.13
2022-09-03T07:10:35.071Z,101181.41
2022-09-03T07:15:33.744Z,101194.34
2022-09-03T07:20:35.810Z,101184.13
2022-09-03T07:25:34.414Z,101195.88
2022-09-03T07:30:34.854Z,101214.13
2022-09-03T07:35:39.820Z,101184.94
2022-09-03T07:40:43.933Z,101188.91
2022-09-03T07:45:43.277Z,101224.75
2022-09-03T07:50:45.136Z,101212.56
2022-09-03T07:55:47.023Z,101207.66
2022-09-03T08:00:45.442Z,101204.03
2022-09-03T08:05:45.870Z,101209.03
2022-09-03T08:10:44.805Z,101215.88
2022-09-03T08:15:55.170Z,101214.97
2022-09-03T08:20:55.639Z,101206.53
2022-09-03T08:26:08.527Z,101227.25
2022-09-03T08:31:27.383Z,101204.28
2022-09-03T08:36:33.297Z,101218.50
2022-09-03T08:41:47.038Z,101234.06
2022-09-03T08:47:32.606Z,101237.75
2022-09-03T08:52:50.287Z,101194.22
2022-09-03T08:57:55.427Z,101203.72
2022-09-03T09:03:24.784Z,101211.97
2022-09-03T09:08:42.275Z,101221.53
2022-09-03T09:13:48.049Z,101208.09
2022-09-03T09:19:10.188Z,101247.34
2022-09-03T09:24:39.874Z,101242.25
2022-09-03T09:29:41.593Z,101228.00
2022-09-03T09:34:42.179Z,101237.84
2022-09-03T09:39:44.063Z,101237.00
2022-09-03T09:44:50.406Z,101272.94
2022-09-03T09:50:07.824Z,101274.56
2022-09-03T09:55:20.732Z,101280.84
2022-09-03T10:00:18.931Z,101264.97
2022-09-03T10:12:29.676Z,101286.03
2022-09-03T10:17:46.205Z,101283.50
2022-09-03T10:23:43.485Z,101270.88
2022-09-03T10:28:50.625Z,101261.69
2022-09-03T10:34:00.263Z,101315.06
2022-09-03T10:39:05.563Z,101283.78
2022-09-03T10:44:44.409Z,101327.47
2022-09-03T10:49:51.246Z,101334.25
2022-09-03T10:55:11.514Z,101332.25
2022-09-03T11:00:18.807Z,101294.19
2022-09-03T11:05:38.788Z,101324.31
2022-09-03T11:11:07.554Z,101327.19
2022-09-03T11:16:12.316Z,101319.66
2022-09-03T11:21:15.779Z,101328.34
2022-09-03T11:26:16.259Z,101341.50
2022-09-03T11:31:36.970Z,101352.72
2022-09-03T11:36:47.338Z,101342.22
2022-09-03T11:42:01.528Z,101341.66
2022-09-03T11:46:59.905Z,101323.09
2022-09-03T11:52:19.773Z,101333.09
2022-09-03T11:57:46.320Z,101336.19
2022-09-03T12:03:01.616Z,101351.38
2022-09-03T12:08:36.518Z,101362.78
2022-09-03T12:14:16.595Z,101353.34
2022-09-03T12:24:48.348Z,101341.38
2022-09-03T12:30:03.764Z,101345.50
2022-09-03T12:35:58.897Z,101339.03
2022-09-03T12:51:54.338Z,101355.94
2022-09-03T12:57:04.197Z,101356.44
2022-09-03T13:02:22.935Z,101361.28
2022-09-03T13:07:23.957Z,101357.81
2022-09-03T13:12:53.197Z,101341.56
2022-09-03T13:18:17.147Z,101350.75
2022-09-03T13:23:56.435Z,101355.16
2022-09-03T13:29:09.752Z,101356.53
2022-09-03T13:34:30.644Z,101364.84
2022-09-03T13:45:43.061Z,101347.03
2022-09-03T13:51:18.258Z,101340.16
2022-09-03T13:57:08.847Z,101319.41
2022-09-03T14:02:28.419Z,101364.75
2022-09-03T14:08:00.274Z,101358.69
2022-09-03T14:13:14.779Z,101360.66
2022-09-03T14:18:49.019Z,101369.88
2022-09-03T14:24:00.781Z,101376.91
2022-09-03T14:29:04.500Z,101336.94
2022-09-03T14:34:12.362Z,101376.06
2022-09-03T14:39:19.844Z,101348.25
2022-09-03T14:44:39.298Z,101382.91
2022-09-03T14:50:09.429Z,101382.78
2022-09-03T14:55:51.011Z,101384.09
2022-09-03T15:01:38.841Z,101383.66
2022-09-03T15:07:09.618Z,101391.38
2022-09-03T15:13:01.598Z,101398.81
2022-09-03T15:25:12.259Z,101387.25
2022-09-03T15:31:16.217Z,101384.13
2022-09-03T15:36:44.519Z,101423.19
2022-09-03T15:47:51.723Z,101425.66
2022-09-03T15:53:35.155Z,101440.06
2022-09-03T15:59:31.138Z,101405.66
2022-09-03T16:04:26.660Z,101443.34
2022-09-03T16:15:42.237Z,101452.06
2022-09-03T16:21:16.540Z,101457.00
2022-09-03T16:26:50.757Z,101418.94
2022-09-03T16:50:43.587Z,101455.13
2022-09-03T16:57:02.720Z,101447.75
2022-09-03T17:02:41.334Z,101476.91
2022-09-03T17:08:40.405Z,101473.53
2022-09-03T17:14:19.713Z,101475.06
2022-09-03T17:25:37.797Z,101493.34
2022-09-03T17:31:27.440Z,101463.75
2022-09-03T17:36:34.699Z,101461.84
2022-09-03T17:41:57.485Z,101487.47
2022-09-03T17:47:17.119Z,101500.31
2022-09-03T17:52:51.582Z,101506.22
2022-09-03T17:58:01.529Z,101470.63
2022-09-03T18:03:23.424Z,101486.41
2022-09-03T18:08:27.056Z,101474.50
2022-09-03T18:13:56.484Z,101534.50
2022-09-03T18:19:09.671Z,101498.06
2022-09-03T18:24:35.412Z,101538.00
2022-09-03T18:30:26.000Z,101531.53
2022-09-03T18:35:45.506Z,101536.16
2022-09-03T18:41:09.343Z,101508.50
2022-09-03T18:47:54.325Z,101537.50
2022-09-03T18:52:47.192Z,101518.88
2022-09-03T18:58:27.616Z,101548.81
2022-09-03T19:04:23.493Z,101554.81
2022-09-03T19:09:59.812Z,101541.03
2022-09-03T19:15:24.383Z,101556.25
2022-09-03T19:20:51.446Z,101529.78
2022-09-03T19:26:10.065Z,101526.69
2022-09-03T19:31:30.685Z,101561.63
2022-09-03T19:37:02.397Z,101568.09
2022-09-03T19:42:28.707Z,101580.28
2022-09-03T19:47:56.629Z,101544.56
2022-09-03T19:53:36.116Z,101584.19
2022-09-03T19:58:56.975Z,101561.19
2022-09-03T20:04:16.152Z,101543.38
2022-09-03T20:09:36.518Z,101554.34
2022-09-03T20:14:36.760Z,101575.25
2022-09-03T20:19:55.020Z,101592.00
2022-09-03T20:25:30.216Z,101568.47
2022-09-03T20:30:54.810Z,101598.41
2022-09-03T20:36:18.741Z,101603.75
2022-09-03T20:41:36.903Z,101606.13
2022-09-03T20:46:45.771Z,101574.53
2022-09-03T20:52:14.076Z,101573.44
2022-09-03T20:57:24.289Z,101618.63
2022-09-03T21:02:31.569Z,101624.25
2022-09-03T21:07:43.553Z,101620.50
2022-09-03T21:12:47.529Z,101604.00
2022-09-03T21:18:06.525Z,101607.34
2022-09-03T21:23:32.865Z,101588.81
2022-09-03T21:28:43.859Z,101570.56
2022-09-03T21:33:47.805Z,101597.28
2022-09-03T21:38:49.221Z,101616.59
2022-09-03T21:43:59.650Z,101588.53
2022-09-03T21:49:06.151Z,101595.44
2022-09-03T21:54:17.732Z,101600.84
2022-09-03T21:59:25.615Z,101604.13
2022-09-03T22:04:25.833Z,101568.13
2022-09-03T22:09:33.415Z,101599.19
2022-09-03T22:14:37.699Z,101563.47
2022-09-03T22:19:37.735Z,101597.72
2022-09-03T22:24:43.502Z,101601.66
2022-09-03T22:29:57.787Z,101611.03
2022-09-03T22:35:11.117Z,101596.59
2022-09-03T22:40:19.831Z,101594.00
2022-09-03T22:45:58.910Z,101603.34
2022-09-03T22:51:04.555Z,101573.16
2022-09-03T22:56:13.716Z,101584.63
2022-09-03T23:01:22.093Z,101583.31
2022-09-03T23:06:28.281Z,101604.34
2022-09-03T23:11:55.546Z,101601.44
2022-09-03T23:17:00.737Z,101573.75
2022-09-03T23:22:04.120Z,101548.25
2022-09-03T23:27:06.428Z,101577.28
2022-09-03T23:32:05.404Z,101568.72
2022-09-03T23:37:33.878Z,101593.50
2022-09-03T23:43:12.084Z,101592.16
2022-09-03T23:48:31.801Z,101590.94
2022-09-03T23:53:43.247Z,101588.81
2022-09-03T23:58:57.378Z,101574.22
